DFFD/OUA METAR and TAF weather

Enter ICAO airport designator
Station Type Date Time Source
DFFD METAR 2018/10/22 17:00 UTC NOAA

DFFD 221700Z 08006KT CAVOK 35/14 Q1009 NOSIG


Station Type Date Time Source
DFFD Decoded METAR 2018/10/22 17:00 UTC NOAA

Ouagadougou, Burkina Faso (DFFD) 12-21N 001-31W 306M
Oct 22, 2018 - 01:00 PM EDT / 2018.10.22 1700 UTC
Wind: from the E (080 degrees) at 7 MPH (6 KT):0
Visibility: greater than 7 mile(s):0
Temperature: 95 F (35 C)
Dew Point: 57 F (14 C)
Relative Humidity: 28%
Pressure (altimeter): 29.80 in. Hg (1009 hPa)
ob: DFFD 221700Z 08006KT CAVOK 35/14 Q1009 NOSIG
cycle: 17

Station Type Date Time Source
DFFD TAF 2018/10/22 18:24 UTC NOAA

TAF TAF DFFD 221700Z 2218/2324 VRB08KT CAVOK PROB30
TEMPO 2316/2324 4000 TSRA SCT026 FEW033CB


Example: see airport list